createdAt,value
2022-11-16T00:01:27.661Z,2.50
2022-11-16T00:04:00.561Z,2.30
2022-11-16T00:06:31.936Z,2.37
2022-11-16T00:09:20.647Z,2.70
2022-11-16T00:11:53.549Z,2.90
2022-11-16T00:14:25.201Z,2.67
2022-11-16T00:16:58.265Z,2.67
2022-11-16T00:19:29.416Z,2.90
2022-11-16T00:22:00.324Z,3.20
2022-11-16T00:24:30.900Z,3.23
2022-11-16T00:27:01.745Z,3.13
2022-11-16T00:29:32.346Z,3.10
2022-11-16T00:32:04.496Z,3.47
2022-11-16T00:34:35.120Z,3.33
2022-11-16T00:37:05.874Z,3.60
2022-11-16T00:39:36.658Z,2.83
2022-11-16T00:42:07.326Z,2.83
2022-11-16T00:44:37.963Z,3.07
2022-11-16T00:47:10.255Z,2.87
2022-11-16T00:49:40.869Z,2.90
2022-11-16T00:52:11.791Z,2.60
2022-11-16T00:54:42.387Z,2.67
2022-11-16T00:57:12.951Z,2.63
2022-11-16T00:59:43.752Z,2.93
2022-11-16T01:02:15.969Z,2.90
2022-11-16T01:04:46.534Z,3.10
2022-11-16T01:07:17.198Z,3.33
2022-11-16T01:09:48.023Z,3.00
2022-11-16T01:12:18.386Z,2.90
2022-11-16T01:14:50.685Z,3.10
2022-11-16T01:17:22.882Z,3.33
2022-11-16T01:19:53.525Z,2.90
2022-11-16T01:22:24.134Z,3.00
2022-11-16T01:24:54.712Z,3.30
2022-11-16T01:27:25.311Z,3.03
2022-11-16T01:29:55.990Z,3.50
2022-11-16T01:32:28.714Z,3.23
2022-11-16T01:34:59.265Z,3.47
2022-11-16T01:37:30.754Z,3.40
2022-11-16T01:40:01.768Z,3.10
2022-11-16T01:42:34.330Z,3.00
2022-11-16T01:45:08.976Z,3.13
2022-11-16T01:47:42.180Z,3.37
2022-11-16T01:50:16.169Z,3.50
2022-11-16T01:52:50.565Z,4.13
2022-11-16T01:55:21.425Z,4.20
2022-11-16T01:57:52.845Z,4.47
2022-11-16T02:00:24.016Z,4.23
2022-11-16T02:02:56.613Z,4.40
2022-11-16T02:05:40.046Z,4.73
2022-11-16T02:08:40.972Z,4.30
2022-11-16T02:11:31.339Z,4.60
2022-11-16T02:14:15.245Z,4.30
2022-11-16T02:16:54.888Z,4.77
2022-11-16T02:19:56.716Z,5.03
2022-11-16T02:22:38.681Z,4.70
2022-11-16T02:25:15.516Z,4.37
2022-11-16T02:28:05.063Z,4.70
2022-11-16T02:30:39.187Z,5.00
2022-11-16T02:33:14.697Z,4.97
2022-11-16T02:35:49.529Z,4.73
2022-11-16T02:38:24.201Z,4.93
2022-11-16T02:41:00.084Z,5.07
2022-11-16T02:43:34.856Z,5.77
2022-11-16T02:46:10.821Z,5.17
2022-11-16T02:48:46.515Z,5.33
2022-11-16T02:51:18.979Z,5.23
2022-11-16T02:54:01.853Z,4.77
2022-11-16T02:56:33.585Z,5.33
2022-11-16T02:59:04.186Z,5.27
2022-11-16T03:01:40.919Z,4.80
2022-11-16T03:04:18.975Z,4.77
2022-11-16T03:06:52.871Z,5.13
2022-11-16T03:09:27.766Z,5.13
2022-11-16T03:12:00.798Z,5.30
2022-11-16T03:14:38.687Z,5.20
2022-11-16T03:17:15.063Z,5.97
2022-11-16T03:19:51.228Z,5.97
2022-11-16T03:22:29.499Z,5.97
2022-11-16T03:25:01.111Z,5.50
2022-11-16T03:27:39.785Z,5.73
2022-11-16T03:30:14.207Z,5.67
2022-11-16T03:32:54.275Z,5.80
2022-11-16T03:35:29.758Z,5.27
2022-11-16T03:38:02.950Z,5.80
2022-11-16T03:40:37.294Z,5.83
2022-11-16T03:43:11.054Z,5.43
2022-11-16T03:45:41.986Z,6.10
2022-11-16T03:48:16.034Z,5.70
2022-11-16T03:50:48.267Z,5.83
2022-11-16T03:53:19.426Z,5.70
2022-11-16T03:55:50.259Z,6.03
2022-11-16T03:58:21.084Z,5.77
2022-11-16T04:00:53.202Z,6.63
2022-11-16T04:03:25.756Z,6.87
2022-11-16T04:06:13.798Z,6.63
2022-11-16T04:09:10.261Z,7.00
2022-11-16T04:11:57.379Z,6.70
2022-11-16T04:14:45.942Z,6.80
2022-11-16T04:17:35.184Z,7.53
2022-11-16T04:20:26.022Z,6.97
2022-11-16T04:23:31.271Z,7.90
2022-11-16T04:26:02.961Z,6.70
2022-11-16T04:28:35.527Z,7.10
2022-11-16T04:31:26.605Z,7.30
2022-11-16T04:34:14.890Z,7.23
2022-11-16T04:37:04.539Z,6.63
2022-11-16T04:39:35.322Z,6.70
2022-11-16T04:42:20.416Z,6.70
2022-11-16T04:45:08.107Z,6.70
2022-11-16T04:47:38.760Z,6.70
2022-11-16T04:50:11.158Z,6.53
2022-11-16T04:52:47.640Z,6.87
2022-11-16T04:55:20.332Z,6.03
2022-11-16T04:57:52.432Z,6.70
2022-11-16T05:00:24.155Z,6.87
2022-11-16T05:03:00.829Z,6.73
2022-11-16T05:05:35.501Z,6.23
2022-11-16T05:08:09.298Z,7.20
2022-11-16T05:10:40.762Z,7.37
2022-11-16T05:13:11.549Z,7.00
2022-11-16T05:15:43.998Z,6.67
2022-11-16T05:18:15.418Z,7.07
2022-11-16T05:21:05.746Z,7.53
2022-11-16T05:23:55.718Z,7.40
2022-11-16T05:26:27.149Z,7.20
2022-11-16T05:28:58.548Z,7.27
2022-11-16T05:31:29.562Z,7.90
2022-11-16T05:34:00.917Z,7.63
2022-11-16T05:36:32.578Z,7.97
2022-11-16T05:39:06.136Z,7.60
2022-11-16T05:41:38.558Z,7.87
2022-11-16T05:44:09.588Z,8.00
2022-11-16T05:46:40.363Z,7.83
2022-11-16T05:49:12.929Z,8.43
2022-11-16T05:51:46.388Z,9.00
2022-11-16T05:54:21.635Z,7.87
2022-11-16T05:56:53.279Z,7.37
2022-11-16T05:59:26.057Z,8.00
2022-11-16T06:01:57.083Z,8.10
2022-11-16T06:04:28.925Z,8.73
2022-11-16T06:06:59.743Z,7.93
2022-11-16T06:09:32.931Z,8.03
2022-11-16T06:12:03.960Z,8.00
2022-11-16T06:14:34.598Z,8.20
2022-11-16T06:17:05.670Z,7.63
2022-11-16T06:19:38.112Z,7.53
2022-11-16T06:22:08.909Z,7.57
2022-11-16T06:24:42.189Z,8.20
2022-11-16T06:27:13.194Z,8.17
2022-11-16T06:29:44.010Z,7.67
2022-11-16T06:32:15.702Z,8.03
2022-11-16T06:34:46.778Z,7.60
2022-11-16T06:37:17.544Z,8.60
2022-11-16T06:39:49.935Z,8.20
2022-11-16T06:42:21.379Z,8.77
2022-11-16T06:44:52.405Z,8.40
2022-11-16T06:47:23.253Z,8.53
2022-11-16T06:49:54.043Z,8.43
2022-11-16T06:52:24.958Z,8.70
2022-11-16T06:54:57.834Z,9.37
2022-11-16T06:57:28.825Z,9.90
2022-11-16T07:00:00.502Z,8.50
2022-11-16T07:02:31.559Z,9.20
2022-11-16T07:05:03.962Z,9.30
2022-11-16T07:07:36.334Z,9.23
2022-11-16T07:10:11.734Z,9.67
2022-11-16T07:12:43.370Z,9.57
2022-11-16T07:15:14.625Z,9.40
2022-11-16T07:17:46.842Z,9.80
2022-11-16T07:20:19.572Z,10.23
2022-11-16T07:22:50.694Z,9.83
2022-11-16T07:25:23.439Z,9.40
2022-11-16T07:27:55.169Z,10.23
2022-11-16T07:30:26.266Z,9.63
2022-11-16T07:33:01.930Z,9.73
2022-11-16T07:35:33.767Z,9.30
2022-11-16T07:38:04.809Z,9.90
2022-11-16T07:40:38.539Z,10.87
2022-11-16T07:43:09.630Z,9.83
2022-11-16T07:45:40.667Z,9.83
2022-11-16T07:48:13.642Z,9.43
2022-11-16T07:50:44.237Z,9.77
2022-11-16T07:53:15.689Z,10.77
2022-11-16T07:55:54.866Z,9.70
2022-11-16T07:58:26.298Z,10.23
2022-11-16T08:00:56.906Z,10.83
2022-11-16T08:03:27.966Z,11.13
2022-11-16T08:06:03.041Z,9.67
2022-11-16T08:08:35.190Z,9.77
2022-11-16T08:11:11.020Z,10.83
2022-11-16T08:13:43.818Z,10.13
2022-11-16T08:16:18.757Z,10.17
2022-11-16T08:18:49.331Z,10.77
2022-11-16T08:21:22.371Z,10.03
2022-11-16T08:23:58.178Z,10.57
2022-11-16T08:26:30.874Z,10.20
2022-11-16T08:29:01.961Z,10.23
2022-11-16T08:31:33.171Z,9.97
2022-11-16T08:34:04.419Z,10.03
2022-11-16T08:36:35.208Z,8.97
2022-11-16T08:39:06.538Z,9.90
2022-11-16T08:41:43.119Z,10.43
2022-11-16T08:44:14.290Z,9.93
2022-11-16T08:46:46.308Z,9.83
2022-11-16T08:49:17.839Z,9.47
2022-11-16T08:51:48.859Z,9.07
2022-11-16T08:54:19.869Z,9.73
2022-11-16T08:56:53.618Z,9.13
2022-11-16T08:59:24.419Z,9.80
2022-11-16T09:01:56.408Z,11.20
2022-11-16T09:04:30.520Z,12.33
2022-11-16T09:07:05.248Z,12.80
2022-11-16T09:09:35.990Z,13.13
2022-11-16T09:12:09.122Z,12.60
2022-11-16T09:14:39.811Z,11.53
2022-11-16T09:17:10.816Z,10.73
2022-11-16T09:19:42.450Z,10.67
2022-11-16T09:22:13.223Z,11.17
2022-11-16T09:24:45.174Z,10.20
2022-11-16T09:27:18.624Z,10.17
2022-11-16T09:29:49.919Z,11.07
2022-11-16T09:32:21.104Z,9.73
2022-11-16T09:34:52.117Z,10.90
2022-11-16T09:37:23.816Z,10.53
2022-11-16T09:39:55.101Z,10.37
2022-11-16T09:42:40.171Z,10.73
2022-11-16T09:45:18.440Z,10.33
2022-11-16T09:47:54.983Z,10.83
2022-11-16T09:50:42.694Z,10.60
2022-11-16T09:53:35.377Z,11.03
2022-11-16T09:56:09.732Z,11.00
2022-11-16T09:58:52.144Z,11.13
2022-11-16T10:01:29.694Z,12.93
2022-11-16T10:04:07.503Z,10.77
2022-11-16T10:06:49.496Z,11.67
2022-11-16T10:09:20.926Z,11.10
2022-11-16T10:12:23.805Z,11.27
2022-11-16T10:15:29.678Z,11.13
2022-11-16T10:18:17.283Z,11.90
2022-11-16T10:21:00.140Z,11.67
2022-11-16T10:23:41.437Z,12.23
2022-11-16T10:26:22.955Z,11.83
2022-11-16T10:29:18.414Z,12.27
2022-11-16T10:32:03.866Z,11.17
2022-11-16T10:34:44.043Z,12.40
2022-11-16T10:37:17.503Z,12.17
2022-11-16T10:39:51.736Z,12.53
2022-11-16T10:42:29.780Z,12.03
2022-11-16T10:45:07.691Z,11.37
2022-11-16T10:47:48.199Z,11.63
2022-11-16T10:50:33.557Z,11.13
2022-11-16T10:53:05.807Z,11.47
2022-11-16T10:55:36.998Z,10.90
2022-11-16T10:58:09.296Z,11.37
2022-11-16T11:00:47.826Z,10.47
2022-11-16T11:03:34.432Z,11.53
2022-11-16T11:06:05.787Z,11.07
2022-11-16T11:08:36.811Z,11.57
2022-11-16T11:11:22.503Z,11.57
2022-11-16T11:14:07.861Z,11.60
2022-11-16T11:16:39.505Z,11.17
2022-11-16T11:19:30.177Z,11.00
2022-11-16T11:22:02.895Z,10.17
2022-11-16T11:24:44.561Z,10.47
2022-11-16T11:27:16.467Z,9.73
2022-11-16T11:29:54.155Z,9.80
2022-11-16T11:32:28.468Z,9.53
2022-11-16T11:35:02.418Z,10.33
2022-11-16T11:37:35.449Z,10.30
2022-11-16T11:40:21.845Z,9.83
2022-11-16T11:43:00.568Z,9.97
2022-11-16T11:45:46.405Z,9.70
2022-11-16T11:48:31.385Z,9.33
2022-11-16T11:51:14.421Z,8.87
2022-11-16T11:53:52.958Z,9.53
2022-11-16T11:56:24.452Z,9.27
2022-11-16T11:58:57.251Z,10.63
2022-11-16T12:01:53.284Z,7.93
2022-11-16T12:04:57.451Z,8.70
2022-11-16T12:07:56.295Z,10.27
2022-11-16T12:10:38.494Z,9.00
2022-11-16T12:13:45.500Z,9.20
2022-11-16T12:16:23.995Z,9.27
2022-11-16T12:19:09.334Z,8.97
2022-11-16T12:21:51.641Z,8.63
2022-11-16T12:24:54.129Z,8.93
2022-11-16T12:27:39.692Z,9.43
2022-11-16T12:30:16.383Z,8.70
2022-11-16T12:33:02.166Z,8.80
2022-11-16T12:35:47.563Z,8.47
2022-11-16T12:38:32.054Z,8.33
2022-11-16T12:41:22.528Z,7.83
2022-11-16T12:44:03.246Z,8.53
2022-11-16T12:46:46.322Z,7.70
2022-11-16T12:49:53.317Z,8.53
2022-11-16T12:52:49.718Z,8.20
2022-11-16T12:55:29.503Z,8.27
2022-11-16T12:58:13.433Z,7.80
2022-11-16T13:01:03.668Z,7.50
2022-11-16T13:03:42.308Z,7.90
2022-11-16T13:06:18.071Z,7.83
2022-11-16T13:08:59.214Z,7.07
2022-11-16T13:11:35.320Z,7.83
2022-11-16T13:14:13.748Z,7.03
2022-11-16T13:16:47.427Z,6.47
2022-11-16T13:19:19.536Z,7.37
2022-11-16T13:21:58.318Z,7.53
2022-11-16T13:24:40.541Z,7.40
2022-11-16T13:27:34.844Z,5.97
2022-11-16T13:30:18.366Z,7.03
2022-11-16T13:33:07.851Z,6.47
2022-11-16T13:35:40.877Z,6.83
2022-11-16T13:38:15.626Z,6.90
2022-11-16T13:40:47.491Z,6.20
2022-11-16T13:43:23.344Z,6.63
2022-11-16T13:45:59.565Z,6.47
2022-11-16T13:48:36.687Z,6.67
2022-11-16T13:51:11.361Z,6.30
2022-11-16T13:54:44.045Z,6.50
2022-11-16T13:56:52.991Z,6.67
2022-11-16T13:59:28.745Z,6.93
2022-11-16T14:02:02.043Z,7.23
2022-11-16T14:05:00.511Z,6.50
2022-11-16T14:07:50.920Z,6.47
2022-11-16T14:10:57.964Z,6.10
2022-11-16T14:13:45.182Z,6.53
2022-11-16T14:16:37.068Z,7.10
2022-11-16T14:19:33.465Z,7.27
2022-11-16T14:22:11.082Z,7.07
2022-11-16T14:24:44.915Z,7.60
2022-11-16T14:27:29.258Z,7.57
2022-11-16T14:30:07.754Z,7.23
2022-11-16T14:32:46.534Z,7.70
2022-11-16T14:35:35.292Z,6.80
2022-11-16T14:38:11.495Z,7.43
2022-11-16T14:40:49.029Z,8.20
2022-11-16T14:43:28.670Z,7.63
2022-11-16T14:46:03.621Z,6.70
2022-11-16T14:48:36.297Z,7.50
2022-11-16T14:51:11.948Z,7.87
2022-11-16T14:53:48.885Z,7.20
2022-11-16T14:56:21.923Z,7.83
2022-11-16T14:58:58.422Z,7.77
2022-11-16T15:01:32.076Z,6.87
2022-11-16T15:04:06.258Z,7.27
2022-11-16T15:06:46.580Z,7.13
2022-11-16T15:09:24.170Z,6.17
2022-11-16T15:12:12.486Z,6.90
2022-11-16T15:14:52.907Z,7.17
2022-11-16T15:17:30.109Z,11.60
2022-11-16T15:20:07.459Z,6.43
2022-11-16T15:22:45.034Z,7.10
2022-11-16T15:25:31.564Z,7.27
2022-11-16T15:28:04.210Z,6.80
2022-11-16T15:30:38.083Z,7.00
2022-11-16T15:33:14.016Z,6.73
2022-11-16T15:35:45.079Z,7.30
2022-11-16T15:38:20.912Z,7.40
2022-11-16T15:40:56.676Z,6.70
2022-11-16T15:43:32.387Z,7.00
2022-11-16T15:46:06.718Z,6.10
2022-11-16T15:48:41.814Z,7.27
2022-11-16T15:51:23.990Z,7.40
2022-11-16T15:53:56.356Z,6.70
2022-11-16T15:56:35.707Z,7.50
2022-11-16T15:59:15.765Z,6.93
2022-11-16T16:01:48.403Z,6.87
2022-11-16T16:04:20.884Z,6.40
2022-11-16T16:06:53.278Z,6.60
2022-11-16T16:09:33.104Z,7.33
2022-11-16T16:12:21.903Z,7.40
2022-11-16T16:14:55.510Z,6.80
2022-11-16T16:17:28.188Z,7.77
2022-11-16T16:20:01.347Z,7.20
2022-11-16T16:22:34.733Z,7.20
2022-11-16T16:25:06.817Z,7.40
2022-11-16T16:27:43.400Z,8.27
2022-11-16T16:30:18.289Z,7.90
2022-11-16T16:32:52.008Z,7.97
2022-11-16T16:35:24.857Z,7.43
2022-11-16T16:38:02.262Z,7.60
2022-11-16T16:40:33.913Z,7.37
2022-11-16T16:43:06.278Z,8.67
2022-11-16T16:45:40.643Z,8.10
2022-11-16T16:48:13.605Z,7.23
2022-11-16T16:50:44.735Z,8.47
2022-11-16T16:53:16.629Z,8.70
2022-11-16T16:55:52.870Z,8.43
2022-11-16T16:58:26.387Z,7.87
2022-11-16T17:01:01.324Z,9.03
2022-11-16T17:03:34.553Z,8.67
2022-11-16T17:06:05.872Z,8.67
2022-11-16T17:08:38.285Z,9.07
2022-11-16T17:11:09.842Z,8.70
2022-11-16T17:13:42.889Z,8.70
2022-11-16T17:16:13.728Z,8.57
2022-11-16T17:18:45.234Z,8.50
2022-11-16T17:21:16.944Z,9.20
2022-11-16T17:23:47.938Z,8.83
2022-11-16T17:26:19.189Z,8.37
2022-11-16T17:28:51.949Z,8.73
2022-11-16T17:31:24.195Z,8.40
2022-11-16T17:33:55.570Z,8.57
2022-11-16T17:36:26.574Z,8.13
2022-11-16T17:38:57.255Z,8.07
2022-11-16T17:41:31.006Z,8.40
2022-11-16T17:44:04.482Z,9.10
2022-11-16T17:46:35.517Z,8.70
2022-11-16T17:49:07.118Z,9.60
2022-11-16T17:51:38.510Z,10.93
2022-11-16T17:54:09.389Z,10.17
2022-11-16T17:56:41.500Z,10.23
2022-11-16T17:59:14.345Z,10.20
2022-11-16T18:01:45.446Z,10.03
2022-11-16T18:04:17.705Z,10.30
2022-11-16T18:06:49.290Z,9.00
2022-11-16T18:09:21.194Z,8.37
2022-11-16T18:11:52.561Z,7.93
2022-11-16T18:14:25.241Z,7.40
2022-11-16T18:16:56.518Z,7.57
2022-11-16T18:19:27.353Z,8.70
2022-11-16T18:21:59.134Z,7.30
2022-11-16T18:24:30.181Z,6.70
2022-11-16T18:27:01.851Z,5.63
2022-11-16T18:29:34.612Z,5.87
2022-11-16T18:32:06.057Z,5.53
2022-11-16T18:34:37.087Z,6.47
2022-11-16T18:37:08.068Z,6.27
2022-11-16T18:39:39.877Z,5.63
2022-11-16T18:42:13.236Z,6.07
2022-11-16T18:44:46.060Z,5.37
2022-11-16T18:47:17.134Z,5.67
2022-11-16T18:49:48.191Z,5.97
2022-11-16T18:52:19.771Z,5.80
2022-11-16T18:54:53.465Z,5.50
2022-11-16T18:57:24.857Z,4.97
2022-11-16T18:59:57.700Z,4.87
2022-11-16T19:02:28.517Z,4.97
2022-11-16T19:04:59.854Z,4.57
2022-11-16T19:07:31.394Z,4.23
2022-11-16T19:10:03.178Z,4.50
2022-11-16T19:12:33.986Z,4.20
2022-11-16T19:15:07.331Z,4.07
2022-11-16T19:17:53.395Z,4.00
2022-11-16T19:20:29.505Z,4.57
2022-11-16T19:23:02.073Z,4.00
2022-11-16T19:25:33.182Z,4.13
2022-11-16T19:28:07.257Z,4.27
2022-11-16T19:30:39.886Z,3.90
2022-11-16T19:33:11.167Z,3.70
2022-11-16T19:35:42.134Z,3.83
2022-11-16T19:38:13.152Z,3.70
2022-11-16T19:40:43.939Z,3.80
2022-11-16T19:43:15.074Z,3.37
2022-11-16T19:45:48.585Z,4.13
2022-11-16T19:48:19.749Z,3.87
2022-11-16T19:50:50.564Z,3.70
2022-11-16T19:53:21.869Z,3.97
2022-11-16T19:55:57.072Z,3.77
2022-11-16T19:58:28.112Z,4.40
2022-11-16T20:01:06.449Z,3.20
2022-11-16T20:03:39.084Z,3.37
2022-11-16T20:06:12.192Z,3.40
2022-11-16T20:08:44.817Z,3.47
2022-11-16T20:11:17.210Z,3.20
2022-11-16T20:13:48.189Z,3.43
2022-11-16T20:16:22.950Z,3.70
2022-11-16T20:18:54.566Z,4.00
2022-11-16T20:21:26.857Z,3.50
2022-11-16T20:24:04.695Z,3.00
2022-11-16T20:26:38.114Z,3.20
2022-11-16T20:29:09.226Z,3.63
2022-11-16T20:31:44.146Z,3.27
2022-11-16T20:34:16.836Z,3.27
2022-11-16T20:36:51.331Z,3.20
2022-11-16T20:39:23.713Z,3.20
2022-11-16T20:41:54.874Z,3.37
2022-11-16T20:44:25.698Z,2.50
2022-11-16T20:46:58.641Z,3.00
2022-11-16T20:49:30.150Z,3.00
2022-11-16T20:52:01.784Z,2.93
2022-11-16T20:54:33.425Z,3.10
2022-11-16T20:57:05.663Z,2.93
2022-11-16T20:59:36.699Z,3.50
2022-11-16T21:02:13.036Z,3.73
2022-11-16T21:04:43.635Z,3.10
2022-11-16T21:07:15.368Z,3.20
2022-11-16T21:10:11.352Z,3.00
2022-11-16T21:12:58.986Z,2.80
2022-11-16T21:15:30.457Z,3.03
2022-11-16T21:18:03.010Z,3.20
2022-11-16T21:20:33.810Z,3.33
2022-11-16T21:23:05.102Z,3.03
2022-11-16T21:25:36.390Z,3.50
2022-11-16T21:28:07.661Z,3.50
2022-11-16T21:30:38.772Z,3.50
2022-11-16T21:33:12.314Z,3.60
2022-11-16T21:35:43.339Z,3.57
2022-11-16T21:38:15.006Z,3.10
2022-11-16T21:40:47.517Z,3.00
2022-11-16T21:43:18.665Z,3.50
2022-11-16T21:45:50.657Z,3.30
2022-11-16T21:48:23.308Z,3.70
2022-11-16T21:51:03.324Z,3.23
2022-11-16T21:53:34.506Z,3.40
2022-11-16T21:56:06.448Z,3.60
2022-11-16T21:58:38.183Z,3.47
2022-11-16T22:01:09.178Z,3.90
2022-11-16T22:03:42.012Z,3.57
2022-11-16T22:06:33.240Z,3.90
2022-11-16T22:09:04.287Z,3.47
2022-11-16T22:11:35.742Z,3.67
2022-11-16T22:14:07.280Z,3.30
2022-11-16T22:16:39.880Z,3.90
2022-11-16T22:19:12.328Z,3.70
2022-11-16T22:21:43.156Z,3.33
2022-11-16T22:24:13.897Z,3.30
2022-11-16T22:26:44.745Z,3.37
2022-11-16T22:29:15.543Z,3.17
2022-11-16T22:31:48.646Z,3.20
2022-11-16T22:34:21.322Z,3.47
2022-11-16T22:36:53.095Z,3.47
2022-11-16T22:39:24.792Z,3.60
2022-11-16T22:41:57.277Z,3.70
2022-11-16T22:44:27.936Z,3.63
2022-11-16T22:46:58.525Z,3.57
2022-11-16T22:49:31.462Z,3.30
2022-11-16T22:52:02.296Z,3.03
2022-11-16T22:54:34.933Z,3.33
2022-11-16T22:57:05.621Z,2.90
2022-11-16T22:59:36.225Z,2.50
2022-11-16T23:02:07.493Z,3.13
2022-11-16T23:04:40.421Z,2.97
2022-11-16T23:07:11.041Z,2.83
2022-11-16T23:09:41.867Z,3.30
2022-11-16T23:12:28.874Z,2.70
2022-11-16T23:15:16.290Z,3.00
2022-11-16T23:17:49.107Z,3.10
2022-11-16T23:20:38.014Z,3.77
2022-11-16T23:23:25.465Z,2.93
2022-11-16T23:26:12.597Z,3.17
2022-11-16T23:28:43.240Z,3.57
2022-11-16T23:31:14.096Z,3.40
2022-11-16T23:33:48.495Z,4.13
2022-11-16T23:36:21.136Z,4.17
2022-11-16T23:38:51.722Z,4.10
2022-11-16T23:41:39.055Z,3.40
2022-11-16T23:44:09.921Z,4.10
2022-11-16T23:46:40.948Z,4.57
2022-11-16T23:49:11.834Z,5.07
2022-11-16T23:51:44.008Z,5.60
2022-11-16T23:54:14.557Z,5.13
2022-11-16T23:56:45.412Z,5.10
2022-11-16T23:59:15.946Z,5.93
